sensor_id;sensor_type;location;lat;lon;timestamp;temperature;humidity
21493;DHT22;10908;50.690;4.400;2023-04-25T00:01:01;8.90;76.60
21493;DHT22;10908;50.690;4.400;2023-04-25T00:03:27;9.00;76.10
21493;DHT22;10908;50.690;4.400;2023-04-25T00:05:54;8.90;75.80
21493;DHT22;10908;50.690;4.400;2023-04-25T00:08:22;9.10;75.50
21493;DHT22;10908;50.690;4.400;2023-04-25T00:10:48;8.90;75.50
21493;DHT22;10908;50.690;4.400;2023-04-25T00:13:14;8.90;76.40
21493;DHT22;10908;50.690;4.400;2023-04-25T00:15:42;8.90;76.80
21493;DHT22;10908;50.690;4.400;2023-04-25T00:18:08;9.00;75.80
21493;DHT22;10908;50.690;4.400;2023-04-25T00:20:35;9.20;75.80
21493;DHT22;10908;50.690;4.400;2023-04-25T00:23:01;9.30;74.70
21493;DHT22;10908;50.690;4.400;2023-04-25T00:25:26;9.00;74.40
21493;DHT22;10908;50.690;4.400;2023-04-25T00:27:52;9.00;75.60
21493;DHT22;10908;50.690;4.400;2023-04-25T00:30:18;9.10;75.40
21493;DHT22;10908;50.690;4.400;2023-04-25T00:32:43;9.20;74.50
21493;DHT22;10908;50.690;4.400;2023-04-25T00:35:09;9.10;74.80
21493;DHT22;10908;50.690;4.400;2023-04-25T00:37:35;9.20;75.30
21493;DHT22;10908;50.690;4.400;2023-04-25T00:40:01;9.00;74.50
21493;DHT22;10908;50.690;4.400;2023-04-25T00:42:27;9.10;74.40
21493;DHT22;10908;50.690;4.400;2023-04-25T00:44:53;8.90;74.80
21493;DHT22;10908;50.690;4.400;2023-04-25T00:47:19;8.90;75.50
21493;DHT22;10908;50.690;4.400;2023-04-25T00:49:46;9.00;75.00
21493;DHT22;10908;50.690;4.400;2023-04-25T00:52:11;9.00;74.90
21493;DHT22;10908;50.690;4.400;2023-04-25T00:54:38;9.20;74.00
21493;DHT22;10908;50.690;4.400;2023-04-25T00:57:04;9.10;74.30
21493;DHT22;10908;50.690;4.400;2023-04-25T00:59:30;9.20;74.40
21493;DHT22;10908;50.690;4.400;2023-04-25T01:01:56;9.10;74.80
21493;DHT22;10908;50.690;4.400;2023-04-25T01:04:22;9.10;74.80
21493;DHT22;10908;50.690;4.400;2023-04-25T01:06:48;9.20;75.00
21493;DHT22;10908;50.690;4.400;2023-04-25T01:09:13;9.10;75.30
21493;DHT22;10908;50.690;4.400;2023-04-25T01:11:40;9.20;75.20
21493;DHT22;10908;50.690;4.400;2023-04-25T01:14:06;8.90;75.50
21493;DHT22;10908;50.690;4.400;2023-04-25T01:16:32;8.90;75.90
21493;DHT22;10908;50.690;4.400;2023-04-25T01:18:58;8.90;76.10
21493;DHT22;10908;50.690;4.400;2023-04-25T01:21:24;8.70;76.80
21493;DHT22;10908;50.690;4.400;2023-04-25T01:23:53;8.60;77.60
21493;DHT22;10908;50.690;4.400;2023-04-25T01:26:19;8.60;78.00
21493;DHT22;10908;50.690;4.400;2023-04-25T01:28:47;8.60;78.20
21493;DHT22;10908;50.690;4.400;2023-04-25T01:31:14;8.60;78.90
21493;DHT22;10908;50.690;4.400;2023-04-25T01:33:41;8.60;79.10
21493;DHT22;10908;50.690;4.400;2023-04-25T01:36:06;8.60;79.20
21493;DHT22;10908;50.690;4.400;2023-04-25T01:38:32;8.60;79.40
21493;DHT22;10908;50.690;4.400;2023-04-25T01:40:58;8.50;79.90
21493;DHT22;10908;50.690;4.400;2023-04-25T01:43:24;8.30;80.10
21493;DHT22;10908;50.690;4.400;2023-04-25T01:45:50;8.30;80.50
21493;DHT22;10908;50.690;4.400;2023-04-25T01:48:15;8.40;80.70
21493;DHT22;10908;50.690;4.400;2023-04-25T01:50:41;8.50;80.20
21493;DHT22;10908;50.690;4.400;2023-04-25T01:53:09;8.50;80.30
21493;DHT22;10908;50.690;4.400;2023-04-25T01:55:35;8.60;80.30
21493;DHT22;10908;50.690;4.400;2023-04-25T01:58:02;8.50;80.00
21493;DHT22;10908;50.690;4.400;2023-04-25T02:00:29;8.50;80.20
21493;DHT22;10908;50.690;4.400;2023-04-25T02:02:58;8.40;80.50
21493;DHT22;10908;50.690;4.400;2023-04-25T02:05:23;8.50;80.80
21493;DHT22;10908;50.690;4.400;2023-04-25T02:07:49;8.40;80.50
21493;DHT22;10908;50.690;4.400;2023-04-25T02:10:15;8.40;80.80
21493;DHT22;10908;50.690;4.400;2023-04-25T02:12:41;8.50;81.10
21493;DHT22;10908;50.690;4.400;2023-04-25T02:15:06;8.60;81.60
21493;DHT22;10908;50.690;4.400;2023-04-25T02:17:32;8.70;81.40
21493;DHT22;10908;50.690;4.400;2023-04-25T02:19:58;8.80;81.30
21493;DHT22;10908;50.690;4.400;2023-04-25T02:22:24;8.60;81.40
21493;DHT22;10908;50.690;4.400;2023-04-25T02:24:50;8.80;81.50
21493;DHT22;10908;50.690;4.400;2023-04-25T02:27:16;8.90;81.50
21493;DHT22;10908;50.690;4.400;2023-04-25T02:29:41;9.00;81.20
21493;DHT22;10908;50.690;4.400;2023-04-25T02:32:07;9.00;80.90
21493;DHT22;10908;50.690;4.400;2023-04-25T02:34:33;8.90;81.00
21493;DHT22;10908;50.690;4.400;2023-04-25T02:36:58;8.80;81.60
21493;DHT22;10908;50.690;4.400;2023-04-25T02:39:24;8.80;81.90
21493;DHT22;10908;50.690;4.400;2023-04-25T02:41:51;8.80;81.60
21493;DHT22;10908;50.690;4.400;2023-04-25T02:44:17;8.80;81.90
21493;DHT22;10908;50.690;4.400;2023-04-25T02:46:42;8.90;81.90
21493;DHT22;10908;50.690;4.400;2023-04-25T02:49:08;8.80;81.90
21493;DHT22;10908;50.690;4.400;2023-04-25T02:51:34;8.70;82.30
21493;DHT22;10908;50.690;4.400;2023-04-25T02:53:59;8.80;82.40
21493;DHT22;10908;50.690;4.400;2023-04-25T02:56:25;8.80;82.60
21493;DHT22;10908;50.690;4.400;2023-04-25T02:58:52;8.90;82.10
21493;DHT22;10908;50.690;4.400;2023-04-25T03:01:18;8.60;82.20
21493;DHT22;10908;50.690;4.400;2023-04-25T03:03:44;8.50;83.20
21493;DHT22;10908;50.690;4.400;2023-04-25T03:06:10;8.20;83.90
21493;DHT22;10908;50.690;4.400;2023-04-25T03:08:35;8.00;84.70
21493;DHT22;10908;50.690;4.400;2023-04-25T03:11:01;7.90;85.60
21493;DHT22;10908;50.690;4.400;2023-04-25T03:13:27;8.00;86.10
21493;DHT22;10908;50.690;4.400;2023-04-25T03:15:55;8.00;86.50
21493;DHT22;10908;50.690;4.400;2023-04-25T03:18:20;8.00;86.60
21493;DHT22;10908;50.690;4.400;2023-04-25T03:20:46;7.90;86.20
21493;DHT22;10908;50.690;4.400;2023-04-25T03:23:12;7.90;86.50
21493;DHT22;10908;50.690;4.400;2023-04-25T03:25:37;7.80;86.40
21493;DHT22;10908;50.690;4.400;2023-04-25T03:28:03;7.80;86.10
21493;DHT22;10908;50.690;4.400;2023-04-25T03:30:29;7.90;86.30
21493;DHT22;10908;50.690;4.400;2023-04-25T03:32:54;8.10;86.10
21493;DHT22;10908;50.690;4.400;2023-04-25T03:35:20;8.10;86.20
21493;DHT22;10908;50.690;4.400;2023-04-25T03:37:46;8.20;86.40
21493;DHT22;10908;50.690;4.400;2023-04-25T03:40:12;8.20;86.30
21493;DHT22;10908;50.690;4.400;2023-04-25T03:42:37;8.00;86.60
21493;DHT22;10908;50.690;4.400;2023-04-25T03:45:03;7.90;86.60
21493;DHT22;10908;50.690;4.400;2023-04-25T03:47:29;7.80;86.90
21493;DHT22;10908;50.690;4.400;2023-04-25T03:49:55;7.80;87.20
21493;DHT22;10908;50.690;4.400;2023-04-25T03:52:20;7.70;86.90
21493;DHT22;10908;50.690;4.400;2023-04-25T03:54:46;7.80;87.00
21493;DHT22;10908;50.690;4.400;2023-04-25T03:57:12;8.10;86.90
21493;DHT22;10908;50.690;4.400;2023-04-25T03:59:37;8.30;86.40
21493;DHT22;10908;50.690;4.400;2023-04-25T04:02:03;8.50;85.50
21493;DHT22;10908;50.690;4.400;2023-04-25T04:04:29;8.70;84.50
21493;DHT22;10908;50.690;4.400;2023-04-25T04:06:55;8.70;84.10
21493;DHT22;10908;50.690;4.400;2023-04-25T04:09:21;8.50;83.20
21493;DHT22;10908;50.690;4.400;2023-04-25T04:11:47;8.40;83.60
21493;DHT22;10908;50.690;4.400;2023-04-25T04:14:12;8.50;84.30
21493;DHT22;10908;50.690;4.400;2023-04-25T04:16:38;8.80;83.50
21493;DHT22;10908;50.690;4.400;2023-04-25T04:19:04;8.90;82.40
21493;DHT22;10908;50.690;4.400;2023-04-25T04:21:29;8.80;82.30
21493;DHT22;10908;50.690;4.400;2023-04-25T04:23:55;8.60;83.00
21493;DHT22;10908;50.690;4.400;2023-04-25T04:26:23;8.70;83.60
21493;DHT22;10908;50.690;4.400;2023-04-25T04:28:51;8.80;83.30
21493;DHT22;10908;50.690;4.400;2023-04-25T04:31:20;8.40;83.20
21493;DHT22;10908;50.690;4.400;2023-04-25T04:33:45;8.30;83.80
21493;DHT22;10908;50.690;4.400;2023-04-25T04:36:12;8.20;83.70
21493;DHT22;10908;50.690;4.400;2023-04-25T04:38:37;8.30;83.90
21493;DHT22;10908;50.690;4.400;2023-04-25T04:41:03;8.30;84.10
21493;DHT22;10908;50.690;4.400;2023-04-25T04:43:29;8.30;84.10
21493;DHT22;10908;50.690;4.400;2023-04-25T04:45:55;8.30;83.70
21493;DHT22;10908;50.690;4.400;2023-04-25T04:48:23;8.10;83.00
21493;DHT22;10908;50.690;4.400;2023-04-25T04:50:49;8.10;83.40
21493;DHT22;10908;50.690;4.400;2023-04-25T04:53:15;8.00;83.20
21493;DHT22;10908;50.690;4.400;2023-04-25T04:55:40;8.10;82.70
21493;DHT22;10908;50.690;4.400;2023-04-25T04:58:07;7.80;82.40
21493;DHT22;10908;50.690;4.400;2023-04-25T05:00:33;7.90;82.90
21493;DHT22;10908;50.690;4.400;2023-04-25T05:02:59;7.80;83.00
21493;DHT22;10908;50.690;4.400;2023-04-25T05:05:25;7.90;83.00
21493;DHT22;10908;50.690;4.400;2023-04-25T05:07:51;7.90;83.20
21493;DHT22;10908;50.690;4.400;2023-04-25T05:10:20;7.80;83.20
21493;DHT22;10908;50.690;4.400;2023-04-25T05:12:46;7.90;83.50
21493;DHT22;10908;50.690;4.400;2023-04-25T05:15:12;7.80;83.70
21493;DHT22;10908;50.690;4.400;2023-04-25T05:17:37;7.90;83.60
21493;DHT22;10908;50.690;4.400;2023-04-25T05:20:05;7.90;83.50
21493;DHT22;10908;50.690;4.400;2023-04-25T05:22:32;8.00;83.50
21493;DHT22;10908;50.690;4.400;2023-04-25T05:24:58;8.30;83.20
21493;DHT22;10908;50.690;4.400;2023-04-25T05:27:24;8.60;82.20
21493;DHT22;10908;50.690;4.400;2023-04-25T05:29:49;8.70;81.80
21493;DHT22;10908;50.690;4.400;2023-04-25T05:32:15;8.70;81.70
21493;DHT22;10908;50.690;4.400;2023-04-25T05:34:40;8.50;81.50
21493;DHT22;10908;50.690;4.400;2023-04-25T05:37:07;8.30;81.60
21493;DHT22;10908;50.690;4.400;2023-04-25T05:39:33;8.10;82.20
21493;DHT22;10908;50.690;4.400;2023-04-25T05:41:58;7.80;83.40
21493;DHT22;10908;50.690;4.400;2023-04-25T05:44:24;7.50;84.00
21493;DHT22;10908;50.690;4.400;2023-04-25T05:46:50;7.60;84.20
21493;DHT22;10908;50.690;4.400;2023-04-25T05:49:16;7.40;84.20
21493;DHT22;10908;50.690;4.400;2023-04-25T05:51:42;7.50;84.50
21493;DHT22;10908;50.690;4.400;2023-04-25T05:54:07;7.50;84.30
21493;DHT22;10908;50.690;4.400;2023-04-25T05:56:33;7.50;83.90
21493;DHT22;10908;50.690;4.400;2023-04-25T05:59:01;7.20;84.10
21493;DHT22;10908;50.690;4.400;2023-04-25T06:01:26;6.90;85.10
21493;DHT22;10908;50.690;4.400;2023-04-25T06:03:52;7.00;85.80
21493;DHT22;10908;50.690;4.400;2023-04-25T06:06:18;6.90;85.20
21493;DHT22;10908;50.690;4.400;2023-04-25T06:08:44;6.80;85.00
21493;DHT22;10908;50.690;4.400;2023-04-25T06:11:10;7.00;85.40
21493;DHT22;10908;50.690;4.400;2023-04-25T06:13:36;6.90;85.00
21493;DHT22;10908;50.690;4.400;2023-04-25T06:16:01;7.00;85.00
21493;DHT22;10908;50.690;4.400;2023-04-25T06:18:27;7.20;84.10
21493;DHT22;10908;50.690;4.400;2023-04-25T06:20:53;7.30;83.40
21493;DHT22;10908;50.690;4.400;2023-04-25T06:23:18;7.20;83.00
21493;DHT22;10908;50.690;4.400;2023-04-25T06:25:44;7.50;82.80
21493;DHT22;10908;50.690;4.400;2023-04-25T06:28:10;7.50;81.60
21493;DHT22;10908;50.690;4.400;2023-04-25T06:30:36;7.50;81.20
21493;DHT22;10908;50.690;4.400;2023-04-25T06:33:02;7.60;81.10
21493;DHT22;10908;50.690;4.400;2023-04-25T06:35:28;7.80;81.10
21493;DHT22;10908;50.690;4.400;2023-04-25T06:37:53;8.10;80.70
21493;DHT22;10908;50.690;4.400;2023-04-25T06:40:19;8.30;80.50
21493;DHT22;10908;50.690;4.400;2023-04-25T06:42:45;8.40;79.50
21493;DHT22;10908;50.690;4.400;2023-04-25T06:45:10;8.50;78.60
21493;DHT22;10908;50.690;4.400;2023-04-25T06:47:36;8.30;78.10
21493;DHT22;10908;50.690;4.400;2023-04-25T06:50:02;8.20;78.60
21493;DHT22;10908;50.690;4.400;2023-04-25T06:52:28;8.30;79.10
21493;DHT22;10908;50.690;4.400;2023-04-25T06:54:53;8.20;78.40
21493;DHT22;10908;50.690;4.400;2023-04-25T06:57:19;8.10;78.60
21493;DHT22;10908;50.690;4.400;2023-04-25T06:59:44;8.40;78.60
21493;DHT22;10908;50.690;4.400;2023-04-25T07:02:10;8.40;77.60
21493;DHT22;10908;50.690;4.400;2023-04-25T07:04:36;8.50;77.60
21493;DHT22;10908;50.690;4.400;2023-04-25T07:07:02;8.70;77.10
21493;DHT22;10908;50.690;4.400;2023-04-25T07:09:29;8.70;75.70
21493;DHT22;10908;50.690;4.400;2023-04-25T07:11:55;8.60;76.00
21493;DHT22;10908;50.690;4.400;2023-04-25T07:14:22;9.00;75.50
21493;DHT22;10908;50.690;4.400;2023-04-25T07:16:47;8.90;76.00
21493;DHT22;10908;50.690;4.400;2023-04-25T07:19:13;8.80;76.80
21493;DHT22;10908;50.690;4.400;2023-04-25T07:21:39;8.80;77.60
21493;DHT22;10908;50.690;4.400;2023-04-25T07:24:05;9.00;77.80
21493;DHT22;10908;50.690;4.400;2023-04-25T07:26:31;9.10;76.40
21493;DHT22;10908;50.690;4.400;2023-04-25T07:28:56;9.20;75.30
21493;DHT22;10908;50.690;4.400;2023-04-25T07:31:22;9.00;75.60
21493;DHT22;10908;50.690;4.400;2023-04-25T07:33:48;9.20;76.30
21493;DHT22;10908;50.690;4.400;2023-04-25T07:36:14;9.30;76.70
21493;DHT22;10908;50.690;4.400;2023-04-25T07:38:40;9.30;75.80
21493;DHT22;10908;50.690;4.400;2023-04-25T07:41:06;9.40;75.80
21493;DHT22;10908;50.690;4.400;2023-04-25T07:43:32;9.40;75.40
21493;DHT22;10908;50.690;4.400;2023-04-25T07:45:58;9.40;75.50
21493;DHT22;10908;50.690;4.400;2023-04-25T07:48:23;9.30;75.50
21493;DHT22;10908;50.690;4.400;2023-04-25T07:50:49;9.10;74.10
21493;DHT22;10908;50.690;4.400;2023-04-25T07:53:15;9.10;74.30
21493;DHT22;10908;50.690;4.400;2023-04-25T07:55:41;9.10;73.50
21493;DHT22;10908;50.690;4.400;2023-04-25T07:58:07;9.10;73.50
21493;DHT22;10908;50.690;4.400;2023-04-25T08:00:33;9.20;73.30
21493;DHT22;10908;50.690;4.400;2023-04-25T08:02:59;9.40;72.60
21493;DHT22;10908;50.690;4.400;2023-04-25T08:05:24;9.50;72.80
21493;DHT22;10908;50.690;4.400;2023-04-25T08:07:50;9.50;72.30
21493;DHT22;10908;50.690;4.400;2023-04-25T08:10:16;9.70;72.00
21493;DHT22;10908;50.690;4.400;2023-04-25T08:12:41;9.80;70.90
21493;DHT22;10908;50.690;4.400;2023-04-25T08:15:08;9.90;70.40
21493;DHT22;10908;50.690;4.400;2023-04-25T08:17:34;10.10;68.90
21493;DHT22;10908;50.690;4.400;2023-04-25T08:19:59;10.20;69.00
21493;DHT22;10908;50.690;4.400;2023-04-25T08:22:25;10.40;69.30
21493;DHT22;10908;50.690;4.400;2023-04-25T08:24:51;10.40;67.20
21493;DHT22;10908;50.690;4.400;2023-04-25T08:27:18;10.30;65.50
21493;DHT22;10908;50.690;4.400;2023-04-25T08:29:44;10.10;66.00
21493;DHT22;10908;50.690;4.400;2023-04-25T08:32:09;10.00;65.90
21493;DHT22;10908;50.690;4.400;2023-04-25T08:34:35;10.00;66.90
21493;DHT22;10908;50.690;4.400;2023-04-25T08:37:02;10.10;67.30
21493;DHT22;10908;50.690;4.400;2023-04-25T08:39:29;10.10;65.70
21493;DHT22;10908;50.690;4.400;2023-04-25T08:41:56;10.10;65.30
21493;DHT22;10908;50.690;4.400;2023-04-25T08:44:22;10.00;65.50
21493;DHT22;10908;50.690;4.400;2023-04-25T08:46:49;10.10;66.10
21493;DHT22;10908;50.690;4.400;2023-04-25T08:49:17;10.20;65.00
21493;DHT22;10908;50.690;4.400;2023-04-25T08:51:47;10.30;65.30
21493;DHT22;10908;50.690;4.400;2023-04-25T08:54:14;10.30;65.30
21493;DHT22;10908;50.690;4.400;2023-04-25T08:56:43;10.30;64.80
21493;DHT22;10908;50.690;4.400;2023-04-25T08:59:11;10.20;63.30
21493;DHT22;10908;50.690;4.400;2023-04-25T09:01:36;10.00;64.80
21493;DHT22;10908;50.690;4.400;2023-04-25T09:04:02;10.20;62.90
21493;DHT22;10908;50.690;4.400;2023-04-25T09:06:31;10.10;65.50
21493;DHT22;10908;50.690;4.400;2023-04-25T09:09:07;10.30;65.20
21493;DHT22;10908;50.690;4.400;2023-04-25T09:11:34;10.40;62.50
21493;DHT22;10908;50.690;4.400;2023-04-25T09:19:29;9.80;62.40
21493;DHT22;10908;50.690;4.400;2023-04-25T09:21:57;10.00;63.40
21493;DHT22;10908;50.690;4.400;2023-04-25T09:24:49;10.30;64.10
21493;DHT22;10908;50.690;4.400;2023-04-25T09:27:20;10.20;58.90
21493;DHT22;10908;50.690;4.400;2023-04-25T09:29:48;10.00;58.70
21493;DHT22;10908;50.690;4.400;2023-04-25T09:32:23;9.90;61.70
21493;DHT22;10908;50.690;4.400;2023-04-25T09:34:53;10.20;61.90
21493;DHT22;10908;50.690;4.400;2023-04-25T09:37:23;10.50;59.20
21493;DHT22;10908;50.690;4.400;2023-04-25T09:39:56;10.70;59.50
21493;DHT22;10908;50.690;4.400;2023-04-25T09:42:25;10.60;58.10
21493;DHT22;10908;50.690;4.400;2023-04-25T09:44:52;10.60;58.00
21493;DHT22;10908;50.690;4.400;2023-04-25T09:47:18;10.70;59.20
21493;DHT22;10908;50.690;4.400;2023-04-25T09:49:47;10.80;58.50
21493;DHT22;10908;50.690;4.400;2023-04-25T09:52:22;10.90;57.80
21493;DHT22;10908;50.690;4.400;2023-04-25T09:54:49;10.80;58.40
21493;DHT22;10908;50.690;4.400;2023-04-25T09:57:24;10.80;58.10
21493;DHT22;10908;50.690;4.400;2023-04-25T09:59:51;10.90;59.40
21493;DHT22;10908;50.690;4.400;2023-04-25T10:02:19;10.80;56.10
21493;DHT22;10908;50.690;4.400;2023-04-25T10:04:48;10.40;56.20
21493;DHT22;10908;50.690;4.400;2023-04-25T10:07:16;10.30;56.70
21493;DHT22;10908;50.690;4.400;2023-04-25T10:09:44;10.30;58.80
21493;DHT22;10908;50.690;4.400;2023-04-25T10:12:12;10.40;60.10
21493;DHT22;10908;50.690;4.400;2023-04-25T10:14:38;10.60;58.70
21493;DHT22;10908;50.690;4.400;2023-04-25T10:17:04;10.30;59.30
21493;DHT22;10908;50.690;4.400;2023-04-25T10:19:30;10.30;60.50
21493;DHT22;10908;50.690;4.400;2023-04-25T10:22:39;10.30;60.50
21493;DHT22;10908;50.690;4.400;2023-04-25T10:24:58;10.20;61.00
21493;DHT22;10908;50.690;4.400;2023-04-25T10:27:27;10.30;62.40
21493;DHT22;10908;50.690;4.400;2023-04-25T10:32:35;10.80;61.20
21493;DHT22;10908;50.690;4.400;2023-04-25T10:35:12;10.80;60.10
21493;DHT22;10908;50.690;4.400;2023-04-25T10:37:38;10.50;59.00
21493;DHT22;10908;50.690;4.400;2023-04-25T10:40:21;10.60;58.70
21493;DHT22;10908;50.690;4.400;2023-04-25T10:42:48;10.80;56.90
21493;DHT22;10908;50.690;4.400;2023-04-25T10:45:14;10.80;54.50
21493;DHT22;10908;50.690;4.400;2023-04-25T10:47:46;10.80;55.10
21493;DHT22;10908;50.690;4.400;2023-04-25T10:50:14;11.00;56.50
21493;DHT22;10908;50.690;4.400;2023-04-25T10:52:41;11.40;57.40
21493;DHT22;10908;50.690;4.400;2023-04-25T10:55:07;11.60;55.80
21493;DHT22;10908;50.690;4.400;2023-04-25T10:57:42;11.70;52.10
21493;DHT22;10908;50.690;4.400;2023-04-25T11:00:16;11.90;54.00
21493;DHT22;10908;50.690;4.400;2023-04-25T11:02:58;11.80;52.40
21493;DHT22;10908;50.690;4.400;2023-04-25T11:05:32;11.80;51.20
21493;DHT22;10908;50.690;4.400;2023-04-25T11:07:58;11.70;51.60
21493;DHT22;10908;50.690;4.400;2023-04-25T11:10:27;11.70;52.00
21493;DHT22;10908;50.690;4.400;2023-04-25T11:12:53;11.50;51.60
21493;DHT22;10908;50.690;4.400;2023-04-25T11:15:19;11.50;50.70
21493;DHT22;10908;50.690;4.400;2023-04-25T11:17:44;11.40;49.70
21493;DHT22;10908;50.690;4.400;2023-04-25T11:20:12;11.20;47.80
21493;DHT22;10908;50.690;4.400;2023-04-25T11:22:40;10.80;49.60
21493;DHT22;10908;50.690;4.400;2023-04-25T11:25:09;11.00;52.50
21493;DHT22;10908;50.690;4.400;2023-04-25T11:27:52;10.90;57.10
21493;DHT22;10908;50.690;4.400;2023-04-25T11:30:19;10.60;60.60
21493;DHT22;10908;50.690;4.400;2023-04-25T11:32:46;10.40;62.60
21493;DHT22;10908;50.690;4.400;2023-04-25T11:35:12;10.20;64.40
21493;DHT22;10908;50.690;4.400;2023-04-25T11:37:42;10.30;64.70
21493;DHT22;10908;50.690;4.400;2023-04-25T11:40:09;10.20;65.20
21493;DHT22;10908;50.690;4.400;2023-04-25T11:42:44;10.20;65.60
21493;DHT22;10908;50.690;4.400;2023-04-25T11:45:10;10.30;65.90
21493;DHT22;10908;50.690;4.400;2023-04-25T11:47:36;10.30;64.80
21493;DHT22;10908;50.690;4.400;2023-04-25T11:50:04;10.20;64.10
21493;DHT22;10908;50.690;4.400;2023-04-25T11:52:44;10.20;63.80
21493;DHT22;10908;50.690;4.400;2023-04-25T11:55:18;10.20;63.10
21493;DHT22;10908;50.690;4.400;2023-04-25T11:57:45;10.10;63.20
21493;DHT22;10908;50.690;4.400;2023-04-25T12:00:17;10.20;63.70
21493;DHT22;10908;50.690;4.400;2023-04-25T12:02:45;10.40;62.70
21493;DHT22;10908;50.690;4.400;2023-04-25T12:05:12;10.60;62.90
21493;DHT22;10908;50.690;4.400;2023-04-25T12:07:38;10.80;61.60
21493;DHT22;10908;50.690;4.400;2023-04-25T12:10:06;10.90;61.00
21493;DHT22;10908;50.690;4.400;2023-04-25T12:12:34;10.90;59.00
21493;DHT22;10908;50.690;4.400;2023-04-25T12:15:13;11.00;58.50
21493;DHT22;10908;50.690;4.400;2023-04-25T12:17:48;11.00;57.20
21493;DHT22;10908;50.690;4.400;2023-04-25T12:20:18;11.20;57.40
21493;DHT22;10908;50.690;4.400;2023-04-25T12:22:51;11.10;55.80
21493;DHT22;10908;50.690;4.400;2023-04-25T12:25:43;11.00;55.50
21493;DHT22;10908;50.690;4.400;2023-04-25T12:31:15;11.30;55.00
21493;DHT22;10908;50.690;4.400;2023-04-25T12:33:41;11.20;53.50
21493;DHT22;10908;50.690;4.400;2023-04-25T12:36:09;11.30;53.40
21493;DHT22;10908;50.690;4.400;2023-04-25T12:38:41;11.20;51.40
21493;DHT22;10908;50.690;4.400;2023-04-25T12:41:08;11.10;51.50
21493;DHT22;10908;50.690;4.400;2023-04-25T12:43:33;11.30;52.70
21493;DHT22;10908;50.690;4.400;2023-04-25T12:45:59;11.60;53.20
21493;DHT22;10908;50.690;4.400;2023-04-25T12:48:25;11.90;50.80
21493;DHT22;10908;50.690;4.400;2023-04-25T12:50:51;12.20;51.50
21493;DHT22;10908;50.690;4.400;2023-04-25T12:53:17;12.30;50.40
21493;DHT22;10908;50.690;4.400;2023-04-25T12:55:44;12.20;49.90
21493;DHT22;10908;50.690;4.400;2023-04-25T12:58:16;12.30;50.00
21493;DHT22;10908;50.690;4.400;2023-04-25T13:00:43;12.30;47.70
21493;DHT22;10908;50.690;4.400;2023-04-25T13:03:09;12.10;47.30
21493;DHT22;10908;50.690;4.400;2023-04-25T13:05:36;11.80;47.80
21493;DHT22;10908;50.690;4.400;2023-04-25T13:08:02;11.80;49.10
21493;DHT22;10908;50.690;4.400;2023-04-25T13:10:28;12.10;48.80
21493;DHT22;10908;50.690;4.400;2023-04-25T13:12:53;12.00;49.30
21493;DHT22;10908;50.690;4.400;2023-04-25T13:15:19;11.90;50.90
21493;DHT22;10908;50.690;4.400;2023-04-25T13:17:45;11.90;49.10
21493;DHT22;10908;50.690;4.400;2023-04-25T13:20:11;11.70;49.90
21493;DHT22;10908;50.690;4.400;2023-04-25T13:22:40;11.80;50.70
21493;DHT22;10908;50.690;4.400;2023-04-25T13:25:07;11.90;51.70
21493;DHT22;10908;50.690;4.400;2023-04-25T13:27:33;12.10;50.10
21493;DHT22;10908;50.690;4.400;2023-04-25T13:30:03;11.90;47.50
21493;DHT22;10908;50.690;4.400;2023-04-25T13:32:34;11.50;47.30
21493;DHT22;10908;50.690;4.400;2023-04-25T13:35:02;11.70;49.20
21493;DHT22;10908;50.690;4.400;2023-04-25T13:37:28;12.10;47.20
21493;DHT22;10908;50.690;4.400;2023-04-25T13:39:55;12.20;46.50
21493;DHT22;10908;50.690;4.400;2023-04-25T13:42:22;12.20;46.90
21493;DHT22;10908;50.690;4.400;2023-04-25T13:44:48;11.80;47.50
21493;DHT22;10908;50.690;4.400;2023-04-25T13:47:14;11.60;48.80
21493;DHT22;10908;50.690;4.400;2023-04-25T13:49:39;11.70;49.80
21493;DHT22;10908;50.690;4.400;2023-04-25T13:52:05;11.90;49.50
21493;DHT22;10908;50.690;4.400;2023-04-25T13:54:31;12.00;49.60
21493;DHT22;10908;50.690;4.400;2023-04-25T13:56:57;12.20;50.70
21493;DHT22;10908;50.690;4.400;2023-04-25T13:59:24;12.00;49.20
21493;DHT22;10908;50.690;4.400;2023-04-25T14:01:51;12.00;49.40
21493;DHT22;10908;50.690;4.400;2023-04-25T14:04:17;11.90;48.00
21493;DHT22;10908;50.690;4.400;2023-04-25T14:06:42;11.70;48.20
21493;DHT22;10908;50.690;4.400;2023-04-25T14:09:08;11.40;49.20
21493;DHT22;10908;50.690;4.400;2023-04-25T14:11:39;11.20;48.70
21493;DHT22;10908;50.690;4.400;2023-04-25T14:14:04;11.10;49.30
21493;DHT22;10908;50.690;4.400;2023-04-25T14:16:30;11.30;49.70
21493;DHT22;10908;50.690;4.400;2023-04-25T14:18:58;11.40;48.30
21493;DHT22;10908;50.690;4.400;2023-04-25T14:21:24;11.60;47.60
21493;DHT22;10908;50.690;4.400;2023-04-25T14:23:50;11.60;46.60
21493;DHT22;10908;50.690;4.400;2023-04-25T14:26:16;11.70;45.90
21493;DHT22;10908;50.690;4.400;2023-04-25T14:28:41;11.80;45.20
21493;DHT22;10908;50.690;4.400;2023-04-25T14:31:07;11.90;44.90
21493;DHT22;10908;50.690;4.400;2023-04-25T14:33:33;12.20;43.20
21493;DHT22;10908;50.690;4.400;2023-04-25T14:35:59;12.20;41.90
21493;DHT22;10908;50.690;4.400;2023-04-25T14:38:25;12.50;43.40
21493;DHT22;10908;50.690;4.400;2023-04-25T14:40:51;12.80;46.00
21493;DHT22;10908;50.690;4.400;2023-04-25T14:43:17;12.40;48.30
21493;DHT22;10908;50.690;4.400;2023-04-25T14:45:43;12.10;49.60
21493;DHT22;10908;50.690;4.400;2023-04-25T14:48:08;11.80;49.40
21493;DHT22;10908;50.690;4.400;2023-04-25T14:50:35;11.80;49.90
21493;DHT22;10908;50.690;4.400;2023-04-25T14:53:00;11.70;50.20
21493;DHT22;10908;50.690;4.400;2023-04-25T14:55:26;11.60;50.10
21493;DHT22;10908;50.690;4.400;2023-04-25T14:57:55;11.50;49.50
21493;DHT22;10908;50.690;4.400;2023-04-25T15:00:22;11.40;50.00
21493;DHT22;10908;50.690;4.400;2023-04-25T15:02:48;11.40;49.00
21493;DHT22;10908;50.690;4.400;2023-04-25T15:05:14;11.30;48.30
21493;DHT22;10908;50.690;4.400;2023-04-25T15:07:40;11.30;48.00
21493;DHT22;10908;50.690;4.400;2023-04-25T15:10:09;11.30;47.60
21493;DHT22;10908;50.690;4.400;2023-04-25T15:12:39;11.10;47.50
21493;DHT22;10908;50.690;4.400;2023-04-25T15:15:06;11.10;47.90
21493;DHT22;10908;50.690;4.400;2023-04-25T15:17:42;11.30;47.80
21493;DHT22;10908;50.690;4.400;2023-04-25T15:20:10;11.30;47.00
21493;DHT22;10908;50.690;4.400;2023-04-25T15:22:37;11.40;47.60
21493;DHT22;10908;50.690;4.400;2023-04-25T15:25:03;11.50;47.10
21493;DHT22;10908;50.690;4.400;2023-04-25T15:27:29;11.50;48.50
21493;DHT22;10908;50.690;4.400;2023-04-25T15:29:56;11.40;47.70
21493;DHT22;10908;50.690;4.400;2023-04-25T15:32:21;11.60;47.50
21493;DHT22;10908;50.690;4.400;2023-04-25T15:34:47;11.80;46.90
21493;DHT22;10908;50.690;4.400;2023-04-25T15:37:13;11.80;48.60
21493;DHT22;10908;50.690;4.400;2023-04-25T15:39:39;11.60;50.40
21493;DHT22;10908;50.690;4.400;2023-04-25T15:55:09;11.70;49.20
21493;DHT22;10908;50.690;4.400;2023-04-25T15:57:35;11.30;50.10
21493;DHT22;10908;50.690;4.400;2023-04-25T16:00:03;11.20;49.40
21493;DHT22;10908;50.690;4.400;2023-04-25T16:02:32;11.20;51.10